sensor_id;sensor_type;location;lat;lon;timestamp;P1;durP1;ratioP1;P2;durP2;ratioP2
23555;SDS011;11956;53.184;8.578;2022-11-20T00:01:38;24.30;;;16.95;;
23555;SDS011;11956;53.184;8.578;2022-11-20T00:04:39;30.08;;;17.08;;
23555;SDS011;11956;53.184;8.578;2022-11-20T00:07:40;26.75;;;17.88;;
23555;SDS011;11956;53.184;8.578;2022-11-20T00:10:41;26.70;;;18.50;;
23555;SDS011;11956;53.184;8.578;2022-11-20T00:13:42;30.10;;;19.50;;
23555;SDS011;11956;53.184;8.578;2022-11-20T00:16:45;27.17;;;18.08;;
23555;SDS011;11956;53.184;8.578;2022-11-20T00:19:45;27.70;;;17.65;;
23555;SDS011;11956;53.184;8.578;2022-11-20T00:22:46;26.75;;;17.52;;
23555;SDS011;11956;53.184;8.578;2022-11-20T00:25:47;31.95;;;19.55;;
23555;SDS011;11956;53.184;8.578;2022-11-20T00:28:52;30.10;;;19.77;;
23555;SDS011;11956;53.184;8.578;2022-11-20T00:31:56;26.63;;;18.58;;
23555;SDS011;11956;53.184;8.578;2022-11-20T00:34:57;30.58;;;19.98;;
23555;SDS011;11956;53.184;8.578;2022-11-20T00:37:58;27.70;;;18.95;;
23555;SDS011;11956;53.184;8.578;2022-11-20T00:40:59;28.05;;;18.67;;
23555;SDS011;11956;53.184;8.578;2022-11-20T00:47:03;29.60;;;18.55;;
23555;SDS011;11956;53.184;8.578;2022-11-20T00:50:04;29.33;;;18.40;;
23555;SDS011;11956;53.184;8.578;2022-11-20T00:53:05;31.88;;;19.83;;
23555;SDS011;11956;53.184;8.578;2022-11-20T00:56:07;26.95;;;18.02;;
23555;SDS011;11956;53.184;8.578;2022-11-20T00:59:11;30.73;;;19.00;;
23555;SDS011;11956;53.184;8.578;2022-11-20T01:02:12;27.88;;;18.38;;
23555;SDS011;11956;53.184;8.578;2022-11-20T01:05:15;27.63;;;19.50;;
23555;SDS011;11956;53.184;8.578;2022-11-20T01:08:16;28.90;;;18.77;;
23555;SDS011;11956;53.184;8.578;2022-11-20T01:11:18;27.25;;;18.13;;
23555;SDS011;11956;53.184;8.578;2022-11-20T01:14:24;33.38;;;19.63;;
23555;SDS011;11956;53.184;8.578;2022-11-20T01:17:25;31.70;;;18.60;;
23555;SDS011;11956;53.184;8.578;2022-11-20T01:20:26;29.35;;;17.95;;
23555;SDS011;11956;53.184;8.578;2022-11-20T01:23:29;26.35;;;18.02;;
23555;SDS011;11956;53.184;8.578;2022-11-20T01:26:35;30.02;;;18.25;;
23555;SDS011;11956;53.184;8.578;2022-11-20T01:29:38;29.40;;;18.73;;
23555;SDS011;11956;53.184;8.578;2022-11-20T01:32:39;30.92;;;18.92;;
23555;SDS011;11956;53.184;8.578;2022-11-20T01:35:40;31.15;;;19.20;;
23555;SDS011;11956;53.184;8.578;2022-11-20T01:38:41;29.95;;;18.48;;
23555;SDS011;11956;53.184;8.578;2022-11-20T01:41:42;28.48;;;18.45;;
23555;SDS011;11956;53.184;8.578;2022-11-20T01:45:42;28.85;;;18.40;;
23555;SDS011;11956;53.184;8.578;2022-11-20T01:49:04;30.80;;;18.13;;
23555;SDS011;11956;53.184;8.578;2022-11-20T01:52:36;28.00;;;18.45;;
23555;SDS011;11956;53.184;8.578;2022-11-20T01:55:47;29.30;;;20.08;;
23555;SDS011;11956;53.184;8.578;2022-11-20T01:58:53;32.15;;;20.23;;
23555;SDS011;11956;53.184;8.578;2022-11-20T02:01:57;30.25;;;19.50;;
23555;SDS011;11956;53.184;8.578;2022-11-20T02:05:00;31.02;;;18.50;;
23555;SDS011;11956;53.184;8.578;2022-11-20T02:08:12;28.48;;;18.02;;
23555;SDS011;11956;53.184;8.578;2022-11-20T02:11:13;30.35;;;19.15;;
23555;SDS011;11956;53.184;8.578;2022-11-20T02:14:14;29.45;;;19.15;;
23555;SDS011;11956;53.184;8.578;2022-11-20T02:17:15;30.15;;;18.80;;
23555;SDS011;11956;53.184;8.578;2022-11-20T02:20:16;31.15;;;19.45;;
23555;SDS011;11956;53.184;8.578;2022-11-20T02:26:59;30.55;;;18.73;;
23555;SDS011;11956;53.184;8.578;2022-11-20T02:30:10;30.17;;;18.42;;
23555;SDS011;11956;53.184;8.578;2022-11-20T02:33:12;29.23;;;18.13;;
23555;SDS011;11956;53.184;8.578;2022-11-20T02:36:14;26.85;;;17.65;;
23555;SDS011;11956;53.184;8.578;2022-11-20T02:39:16;30.00;;;18.27;;
23555;SDS011;11956;53.184;8.578;2022-11-20T02:42:17;28.77;;;18.13;;
23555;SDS011;11956;53.184;8.578;2022-11-20T02:45:18;29.75;;;18.33;;
23555;SDS011;11956;53.184;8.578;2022-11-20T02:48:19;28.75;;;18.02;;
23555;SDS011;11956;53.184;8.578;2022-11-20T02:51:20;28.60;;;18.35;;
23555;SDS011;11956;53.184;8.578;2022-11-20T02:54:22;27.50;;;17.70;;
23555;SDS011;11956;53.184;8.578;2022-11-20T02:57:23;28.80;;;17.75;;
23555;SDS011;11956;53.184;8.578;2022-11-20T03:00:24;27.38;;;16.08;;
23555;SDS011;11956;53.184;8.578;2022-11-20T03:03:25;26.10;;;17.02;;
23555;SDS011;11956;53.184;8.578;2022-11-20T03:06:26;26.83;;;16.00;;
23555;SDS011;11956;53.184;8.578;2022-11-20T03:09:27;24.48;;;15.27;;
23555;SDS011;11956;53.184;8.578;2022-11-20T03:12:28;23.75;;;14.55;;
23555;SDS011;11956;53.184;8.578;2022-11-20T03:15:28;25.33;;;16.20;;
23555;SDS011;11956;53.184;8.578;2022-11-20T03:18:29;24.60;;;15.15;;
23555;SDS011;11956;53.184;8.578;2022-11-20T03:21:30;25.65;;;16.05;;
23555;SDS011;11956;53.184;8.578;2022-11-20T03:24:33;25.15;;;14.75;;
23555;SDS011;11956;53.184;8.578;2022-11-20T03:27:34;23.50;;;13.55;;
23555;SDS011;11956;53.184;8.578;2022-11-20T03:30:35;19.70;;;13.30;;
23555;SDS011;11956;53.184;8.578;2022-11-20T03:33:36;26.13;;;14.43;;
23555;SDS011;11956;53.184;8.578;2022-11-20T03:36:38;25.25;;;14.75;;
23555;SDS011;11956;53.184;8.578;2022-11-20T03:39:41;21.47;;;13.37;;
23555;SDS011;11956;53.184;8.578;2022-11-20T03:42:42;21.05;;;13.25;;
23555;SDS011;11956;53.184;8.578;2022-11-20T03:45:45;22.70;;;14.10;;
23555;SDS011;11956;53.184;8.578;2022-11-20T03:48:47;24.13;;;14.38;;
23555;SDS011;11956;53.184;8.578;2022-11-20T03:51:48;20.95;;;13.55;;
23555;SDS011;11956;53.184;8.578;2022-11-20T03:54:49;18.85;;;12.73;;
23555;SDS011;11956;53.184;8.578;2022-11-20T03:57:50;21.58;;;13.18;;
23555;SDS011;11956;53.184;8.578;2022-11-20T04:00:51;21.67;;;13.90;;
23555;SDS011;11956;53.184;8.578;2022-11-20T04:03:53;22.05;;;13.45;;
23555;SDS011;11956;53.184;8.578;2022-11-20T04:06:55;21.77;;;13.18;;
23555;SDS011;11956;53.184;8.578;2022-11-20T04:09:56;19.45;;;12.65;;
23555;SDS011;11956;53.184;8.578;2022-11-20T04:12:57;20.23;;;12.40;;
23555;SDS011;11956;53.184;8.578;2022-11-20T04:15:57;20.67;;;12.43;;
23555;SDS011;11956;53.184;8.578;2022-11-20T04:18:59;19.35;;;11.90;;
23555;SDS011;11956;53.184;8.578;2022-11-20T04:22:03;19.27;;;12.73;;
23555;SDS011;11956;53.184;8.578;2022-11-20T04:25:04;18.55;;;11.77;;
23555;SDS011;11956;53.184;8.578;2022-11-20T04:28:05;20.95;;;12.85;;
23555;SDS011;11956;53.184;8.578;2022-11-20T04:31:13;19.35;;;12.82;;
23555;SDS011;11956;53.184;8.578;2022-11-20T04:34:20;18.83;;;11.75;;
23555;SDS011;11956;53.184;8.578;2022-11-20T04:37:21;17.33;;;11.77;;
23555;SDS011;11956;53.184;8.578;2022-11-20T04:40:22;18.73;;;10.90;;
23555;SDS011;11956;53.184;8.578;2022-11-20T04:43:23;18.92;;;11.77;;
23555;SDS011;11956;53.184;8.578;2022-11-20T04:46:24;17.70;;;11.38;;
23555;SDS011;11956;53.184;8.578;2022-11-20T04:49:26;15.93;;;10.88;;
23555;SDS011;11956;53.184;8.578;2022-11-20T04:52:27;17.00;;;11.25;;
23555;SDS011;11956;53.184;8.578;2022-11-20T04:55:28;16.08;;;10.30;;
23555;SDS011;11956;53.184;8.578;2022-11-20T04:58:29;18.50;;;11.45;;
23555;SDS011;11956;53.184;8.578;2022-11-20T05:01:30;17.38;;;10.38;;
23555;SDS011;11956;53.184;8.578;2022-11-20T05:04:32;16.98;;;10.70;;
23555;SDS011;11956;53.184;8.578;2022-11-20T05:07:33;16.40;;;9.88;;
23555;SDS011;11956;53.184;8.578;2022-11-20T05:10:34;18.23;;;10.43;;
23555;SDS011;11956;53.184;8.578;2022-11-20T05:13:35;15.38;;;10.73;;
23555;SDS011;11956;53.184;8.578;2022-11-20T05:16:37;15.13;;;9.73;;
23555;SDS011;11956;53.184;8.578;2022-11-20T05:19:38;15.43;;;10.07;;
23555;SDS011;11956;53.184;8.578;2022-11-20T05:22:39;14.90;;;9.15;;
23555;SDS011;11956;53.184;8.578;2022-11-20T05:25:40;14.32;;;10.02;;
23555;SDS011;11956;53.184;8.578;2022-11-20T05:28:41;17.27;;;10.60;;
23555;SDS011;11956;53.184;8.578;2022-11-20T05:31:42;13.23;;;9.20;;
23555;SDS011;11956;53.184;8.578;2022-11-20T05:34:43;15.18;;;9.93;;
23555;SDS011;11956;53.184;8.578;2022-11-20T05:37:43;15.48;;;9.20;;
23555;SDS011;11956;53.184;8.578;2022-11-20T05:40:44;13.73;;;9.32;;
23555;SDS011;11956;53.184;8.578;2022-11-20T05:43:46;16.50;;;10.02;;
23555;SDS011;11956;53.184;8.578;2022-11-20T05:46:48;14.10;;;8.83;;
23555;SDS011;11956;53.184;8.578;2022-11-20T05:49:49;13.20;;;8.70;;
23555;SDS011;11956;53.184;8.578;2022-11-20T05:52:50;13.70;;;9.00;;
23555;SDS011;11956;53.184;8.578;2022-11-20T05:56:00;14.40;;;9.00;;
23555;SDS011;11956;53.184;8.578;2022-11-20T05:59:04;12.75;;;8.70;;
23555;SDS011;11956;53.184;8.578;2022-11-20T06:02:05;11.77;;;7.78;;
23555;SDS011;11956;53.184;8.578;2022-11-20T06:05:05;13.25;;;9.20;;
23555;SDS011;11956;53.184;8.578;2022-11-20T06:08:07;16.38;;;9.57;;
23555;SDS011;11956;53.184;8.578;2022-11-20T06:11:08;13.50;;;9.00;;
23555;SDS011;11956;53.184;8.578;2022-11-20T06:14:12;14.13;;;9.63;;
23555;SDS011;11956;53.184;8.578;2022-11-20T06:17:13;15.23;;;9.25;;
23555;SDS011;11956;53.184;8.578;2022-11-20T06:20:14;19.20;;;9.55;;
23555;SDS011;11956;53.184;8.578;2022-11-20T06:23:15;14.65;;;9.57;;
23555;SDS011;11956;53.184;8.578;2022-11-20T06:26:17;16.65;;;10.45;;
23555;SDS011;11956;53.184;8.578;2022-11-20T06:29:19;13.32;;;9.15;;
23555;SDS011;11956;53.184;8.578;2022-11-20T06:32:20;15.30;;;9.93;;
23555;SDS011;11956;53.184;8.578;2022-11-20T06:35:21;17.83;;;11.18;;
23555;SDS011;11956;53.184;8.578;2022-11-20T06:38:21;15.85;;;10.20;;
23555;SDS011;11956;53.184;8.578;2022-11-20T06:41:22;14.93;;;10.48;;
23555;SDS011;11956;53.184;8.578;2022-11-20T06:44:24;15.52;;;9.88;;
23555;SDS011;11956;53.184;8.578;2022-11-20T06:47:25;14.52;;;9.68;;
23555;SDS011;11956;53.184;8.578;2022-11-20T06:50:26;15.98;;;9.63;;
23555;SDS011;11956;53.184;8.578;2022-11-20T06:53:27;16.75;;;10.10;;
23555;SDS011;11956;53.184;8.578;2022-11-20T06:56:27;14.77;;;10.23;;
23555;SDS011;11956;53.184;8.578;2022-11-20T06:59:28;14.55;;;10.43;;
23555;SDS011;11956;53.184;8.578;2022-11-20T07:02:29;13.25;;;9.75;;
23555;SDS011;11956;53.184;8.578;2022-11-20T07:05:30;15.20;;;10.55;;
23555;SDS011;11956;53.184;8.578;2022-11-20T07:08:31;17.02;;;10.65;;
23555;SDS011;11956;53.184;8.578;2022-11-20T07:11:33;16.45;;;11.65;;
23555;SDS011;11956;53.184;8.578;2022-11-20T07:14:34;17.08;;;10.88;;
23555;SDS011;11956;53.184;8.578;2022-11-20T07:17:35;17.20;;;11.05;;
23555;SDS011;11956;53.184;8.578;2022-11-20T07:20:36;17.10;;;10.57;;
23555;SDS011;11956;53.184;8.578;2022-11-20T07:23:37;16.15;;;11.07;;
23555;SDS011;11956;53.184;8.578;2022-11-20T07:26:38;16.27;;;11.35;;
23555;SDS011;11956;53.184;8.578;2022-11-20T07:29:39;17.20;;;10.75;;
23555;SDS011;11956;53.184;8.578;2022-11-20T07:32:40;17.13;;;11.10;;
23555;SDS011;11956;53.184;8.578;2022-11-20T07:35:40;15.48;;;10.60;;
23555;SDS011;11956;53.184;8.578;2022-11-20T07:38:41;17.05;;;10.57;;
23555;SDS011;11956;53.184;8.578;2022-11-20T07:41:42;16.40;;;9.65;;
23555;SDS011;11956;53.184;8.578;2022-11-20T07:44:43;15.07;;;10.80;;
23555;SDS011;11956;53.184;8.578;2022-11-20T07:47:44;14.38;;;9.77;;
23555;SDS011;11956;53.184;8.578;2022-11-20T07:50:45;16.02;;;10.02;;
23555;SDS011;11956;53.184;8.578;2022-11-20T07:53:46;14.70;;;10.25;;
23555;SDS011;11956;53.184;8.578;2022-11-20T07:56:47;13.35;;;9.68;;
23555;SDS011;11956;53.184;8.578;2022-11-20T07:59:49;17.23;;;10.65;;
23555;SDS011;11956;53.184;8.578;2022-11-20T08:02:49;16.55;;;10.32;;
23555;SDS011;11956;53.184;8.578;2022-11-20T08:05:50;14.60;;;10.15;;
23555;SDS011;11956;53.184;8.578;2022-11-20T08:08:52;12.70;;;9.45;;
23555;SDS011;11956;53.184;8.578;2022-11-20T08:11:53;16.35;;;9.88;;
23555;SDS011;11956;53.184;8.578;2022-11-20T08:15:12;15.90;;;10.98;;
23555;SDS011;11956;53.184;8.578;2022-11-20T08:18:13;13.90;;;10.10;;
23555;SDS011;11956;53.184;8.578;2022-11-20T08:21:13;14.70;;;10.07;;
23555;SDS011;11956;53.184;8.578;2022-11-20T08:24:14;16.05;;;10.55;;
23555;SDS011;11956;53.184;8.578;2022-11-20T08:27:15;13.68;;;9.77;;
23555;SDS011;11956;53.184;8.578;2022-11-20T08:30:16;15.35;;;10.80;;
23555;SDS011;11956;53.184;8.578;2022-11-20T08:33:17;15.55;;;10.55;;
23555;SDS011;11956;53.184;8.578;2022-11-20T08:36:19;16.45;;;10.77;;
23555;SDS011;11956;53.184;8.578;2022-11-20T08:39:21;15.60;;;11.23;;
23555;SDS011;11956;53.184;8.578;2022-11-20T08:42:22;16.02;;;11.32;;
23555;SDS011;11956;53.184;8.578;2022-11-20T08:45:23;17.75;;;11.68;;
23555;SDS011;11956;53.184;8.578;2022-11-20T08:48:24;18.63;;;12.15;;
23555;SDS011;11956;53.184;8.578;2022-11-20T08:51:25;18.83;;;12.10;;
23555;SDS011;11956;53.184;8.578;2022-11-20T08:54:26;21.67;;;12.40;;
23555;SDS011;11956;53.184;8.578;2022-11-20T08:57:27;16.75;;;11.45;;
23555;SDS011;11956;53.184;8.578;2022-11-20T09:00:28;15.30;;;11.05;;
23555;SDS011;11956;53.184;8.578;2022-11-20T09:03:28;21.70;;;11.70;;
23555;SDS011;11956;53.184;8.578;2022-11-20T09:06:29;18.05;;;11.77;;
23555;SDS011;11956;53.184;8.578;2022-11-20T09:09:30;18.08;;;11.80;;
23555;SDS011;11956;53.184;8.578;2022-11-20T09:12:31;17.88;;;12.02;;
23555;SDS011;11956;53.184;8.578;2022-11-20T09:15:32;18.23;;;12.20;;
23555;SDS011;11956;53.184;8.578;2022-11-20T09:18:34;17.95;;;12.70;;
23555;SDS011;11956;53.184;8.578;2022-11-20T09:21:38;19.85;;;13.00;;
23555;SDS011;11956;53.184;8.578;2022-11-20T09:24:39;21.17;;;12.85;;
23555;SDS011;11956;53.184;8.578;2022-11-20T09:27:40;18.90;;;13.63;;
23555;SDS011;11956;53.184;8.578;2022-11-20T09:30:45;20.02;;;13.68;;
23555;SDS011;11956;53.184;8.578;2022-11-20T09:33:46;20.77;;;13.40;;
23555;SDS011;11956;53.184;8.578;2022-11-20T09:36:47;20.85;;;13.50;;
23555;SDS011;11956;53.184;8.578;2022-11-20T09:39:48;23.50;;;15.05;;
23555;SDS011;11956;53.184;8.578;2022-11-20T09:49:46;23.40;;;14.52;;
23555;SDS011;11956;53.184;8.578;2022-11-20T09:56:48;23.73;;;14.98;;
23555;SDS011;11956;53.184;8.578;2022-11-20T10:00:04;21.80;;;14.15;;
23555;SDS011;11956;53.184;8.578;2022-11-20T10:03:19;22.85;;;15.80;;
23555;SDS011;11956;53.184;8.578;2022-11-20T10:06:39;21.08;;;14.65;;
23555;SDS011;11956;53.184;8.578;2022-11-20T10:10:03;22.45;;;15.40;;
23555;SDS011;11956;53.184;8.578;2022-11-20T10:17:12;25.02;;;15.70;;
23555;SDS011;11956;53.184;8.578;2022-11-20T10:24:24;22.23;;;15.65;;
23555;SDS011;11956;53.184;8.578;2022-11-20T10:31:31;22.02;;;14.95;;
23555;SDS011;11956;53.184;8.578;2022-11-20T10:34:43;23.70;;;15.02;;
23555;SDS011;11956;53.184;8.578;2022-11-20T10:37:56;21.08;;;14.95;;
23555;SDS011;11956;53.184;8.578;2022-11-20T10:41:01;23.70;;;15.15;;
23555;SDS011;11956;53.184;8.578;2022-11-20T10:44:26;21.80;;;14.63;;
23555;SDS011;11956;53.184;8.578;2022-11-20T10:47:47;22.15;;;13.95;;
23555;SDS011;11956;53.184;8.578;2022-11-20T11:01:25;22.80;;;14.60;;
23555;SDS011;11956;53.184;8.578;2022-11-20T11:07:38;21.63;;;13.98;;
23555;SDS011;11956;53.184;8.578;2022-11-20T11:14:08;20.27;;;13.90;;
23555;SDS011;11956;53.184;8.578;2022-11-20T11:17:33;20.85;;;14.20;;
23555;SDS011;11956;53.184;8.578;2022-11-20T11:20:34;18.67;;;12.73;;
23555;SDS011;11956;53.184;8.578;2022-11-20T11:23:39;18.60;;;12.38;;
23555;SDS011;11956;53.184;8.578;2022-11-20T11:26:50;18.33;;;12.55;;
23555;SDS011;11956;53.184;8.578;2022-11-20T11:30:13;18.50;;;13.38;;
23555;SDS011;11956;53.184;8.578;2022-11-20T11:33:26;17.83;;;12.63;;
23555;SDS011;11956;53.184;8.578;2022-11-20T11:36:29;18.65;;;12.60;;
23555;SDS011;11956;53.184;8.578;2022-11-20T11:39:31;18.63;;;12.13;;
23555;SDS011;11956;53.184;8.578;2022-11-20T11:42:34;17.25;;;11.68;;
23555;SDS011;11956;53.184;8.578;2022-11-20T11:45:35;15.75;;;11.00;;
23555;SDS011;11956;53.184;8.578;2022-11-20T11:48:36;17.75;;;11.88;;
23555;SDS011;11956;53.184;8.578;2022-11-20T11:51:44;20.13;;;11.20;;
23555;SDS011;11956;53.184;8.578;2022-11-20T11:55:05;18.10;;;11.88;;
23555;SDS011;11956;53.184;8.578;2022-11-20T12:01:55;15.82;;;10.75;;
23555;SDS011;11956;53.184;8.578;2022-11-20T12:05:05;15.95;;;11.38;;
23555;SDS011;11956;53.184;8.578;2022-11-20T12:08:31;16.00;;;11.13;;
23555;SDS011;11956;53.184;8.578;2022-11-20T12:11:54;16.52;;;10.77;;
23555;SDS011;11956;53.184;8.578;2022-11-20T12:15:11;14.10;;;10.68;;
23555;SDS011;11956;53.184;8.578;2022-11-20T12:18:22;15.80;;;9.82;;
23555;SDS011;11956;53.184;8.578;2022-11-20T12:39:03;15.35;;;10.10;;
23555;SDS011;11956;53.184;8.578;2022-11-20T12:42:47;17.30;;;11.45;;
23555;SDS011;11956;53.184;8.578;2022-11-20T12:51:02;15.43;;;10.30;;
23555;SDS011;11956;53.184;8.578;2022-11-20T13:00:43;12.80;;;9.30;;
23555;SDS011;11956;53.184;8.578;2022-11-20T13:04:08;13.15;;;9.57;;
23555;SDS011;11956;53.184;8.578;2022-11-20T13:07:35;17.92;;;10.48;;
23555;SDS011;11956;53.184;8.578;2022-11-20T13:10:43;13.55;;;9.20;;
23555;SDS011;11956;53.184;8.578;2022-11-20T13:18:20;11.73;;;9.07;;
23555;SDS011;11956;53.184;8.578;2022-11-20T13:21:18;16.40;;;9.50;;
23555;SDS011;11956;53.184;8.578;2022-11-20T13:24:35;13.57;;;9.32;;
23555;SDS011;11956;53.184;8.578;2022-11-20T13:27:36;12.02;;;9.00;;
23555;SDS011;11956;53.184;8.578;2022-11-20T13:30:48;15.65;;;9.95;;
23555;SDS011;11956;53.184;8.578;2022-11-20T13:33:54;13.82;;;9.18;;
23555;SDS011;11956;53.184;8.578;2022-11-20T13:36:56;14.25;;;9.68;;
23555;SDS011;11956;53.184;8.578;2022-11-20T13:43:34;14.48;;;10.35;;
23555;SDS011;11956;53.184;8.578;2022-11-20T13:49:45;14.77;;;10.43;;
23555;SDS011;11956;53.184;8.578;2022-11-20T13:56:08;13.88;;;9.88;;
23555;SDS011;11956;53.184;8.578;2022-11-20T14:03:19;14.25;;;9.90;;
23555;SDS011;11956;53.184;8.578;2022-11-20T14:06:29;13.50;;;9.75;;
23555;SDS011;11956;53.184;8.578;2022-11-20T14:09:48;15.30;;;10.32;;
23555;SDS011;11956;53.184;8.578;2022-11-20T14:12:55;16.70;;;10.15;;
23555;SDS011;11956;53.184;8.578;2022-11-20T14:15:56;14.85;;;9.90;;
23555;SDS011;11956;53.184;8.578;2022-11-20T14:19:16;13.15;;;9.50;;
23555;SDS011;11956;53.184;8.578;2022-11-20T14:22:21;15.65;;;10.35;;
23555;SDS011;11956;53.184;8.578;2022-11-20T14:25:25;13.15;;;9.38;;
23555;SDS011;11956;53.184;8.578;2022-11-20T14:28:31;15.43;;;9.95;;
23555;SDS011;11956;53.184;8.578;2022-11-20T14:31:32;14.30;;;10.00;;
23555;SDS011;11956;53.184;8.578;2022-11-20T14:34:35;17.38;;;10.70;;
23555;SDS011;11956;53.184;8.578;2022-11-20T14:37:40;14.95;;;10.38;;
23555;SDS011;11956;53.184;8.578;2022-11-20T14:40:41;17.13;;;10.98;;
23555;SDS011;11956;53.184;8.578;2022-11-20T14:43:45;16.08;;;10.65;;
23555;SDS011;11956;53.184;8.578;2022-11-20T14:46:48;16.55;;;10.75;;
23555;SDS011;11956;53.184;8.578;2022-11-20T14:49:51;14.80;;;9.93;;
23555;SDS011;11956;53.184;8.578;2022-11-20T14:52:54;15.45;;;10.52;;
23555;SDS011;11956;53.184;8.578;2022-11-20T14:55:59;15.05;;;10.07;;
23555;SDS011;11956;53.184;8.578;2022-11-20T14:59:02;18.10;;;11.25;;
23555;SDS011;11956;53.184;8.578;2022-11-20T15:02:05;18.17;;;11.50;;
23555;SDS011;11956;53.184;8.578;2022-11-20T15:05:10;15.60;;;10.43;;
23555;SDS011;11956;53.184;8.578;2022-11-20T15:08:13;15.00;;;10.38;;
23555;SDS011;11956;53.184;8.578;2022-11-20T15:11:18;16.13;;;11.63;;
23555;SDS011;11956;53.184;8.578;2022-11-20T15:14:28;16.55;;;11.00;;
23555;SDS011;11956;53.184;8.578;2022-11-20T15:17:31;18.13;;;11.80;;
23555;SDS011;11956;53.184;8.578;2022-11-20T15:20:35;16.85;;;10.98;;
23555;SDS011;11956;53.184;8.578;2022-11-20T15:23:36;22.98;;;13.38;;
23555;SDS011;11956;53.184;8.578;2022-11-20T15:26:37;20.02;;;13.38;;
23555;SDS011;11956;53.184;8.578;2022-11-20T15:29:41;22.92;;;14.23;;
23555;SDS011;11956;53.184;8.578;2022-11-20T15:32:43;23.13;;;15.68;;
23555;SDS011;11956;53.184;8.578;2022-11-20T15:35:44;24.58;;;16.50;;
23555;SDS011;11956;53.184;8.578;2022-11-20T15:38:46;23.90;;;15.73;;
23555;SDS011;11956;53.184;8.578;2022-11-20T15:41:46;23.40;;;15.45;;
23555;SDS011;11956;53.184;8.578;2022-11-20T15:44:48;24.38;;;15.75;;
23555;SDS011;11956;53.184;8.578;2022-11-20T15:47:49;24.15;;;15.60;;
23555;SDS011;11956;53.184;8.578;2022-11-20T15:53:56;26.40;;;15.55;;
23555;SDS011;11956;53.184;8.578;2022-11-20T15:56:58;25.13;;;16.13;;
23555;SDS011;11956;53.184;8.578;2022-11-20T16:00:00;24.42;;;15.20;;
23555;SDS011;11956;53.184;8.578;2022-11-20T16:03:11;24.92;;;15.15;;
23555;SDS011;11956;53.184;8.578;2022-11-20T16:06:14;22.10;;;14.05;;
23555;SDS011;11956;53.184;8.578;2022-11-20T16:09:16;23.65;;;14.38;;
23555;SDS011;11956;53.184;8.578;2022-11-20T16:12:18;25.65;;;15.80;;
23555;SDS011;11956;53.184;8.578;2022-11-20T16:15:37;23.80;;;14.93;;
23555;SDS011;11956;53.184;8.578;2022-11-20T16:18:48;23.83;;;16.20;;
23555;SDS011;11956;53.184;8.578;2022-11-20T16:21:50;27.92;;;16.30;;
23555;SDS011;11956;53.184;8.578;2022-11-20T16:24:51;25.58;;;16.85;;
23555;SDS011;11956;53.184;8.578;2022-11-20T16:27:52;26.40;;;16.20;;
23555;SDS011;11956;53.184;8.578;2022-11-20T16:30:53;22.02;;;15.27;;
23555;SDS011;11956;53.184;8.578;2022-11-20T16:33:55;24.77;;;14.55;;
23555;SDS011;11956;53.184;8.578;2022-11-20T16:36:57;23.98;;;14.85;;
23555;SDS011;11956;53.184;8.578;2022-11-20T16:39:58;26.05;;;16.17;;
23555;SDS011;11956;53.184;8.578;2022-11-20T16:43:17;25.17;;;16.00;;
23555;SDS011;11956;53.184;8.578;2022-11-20T16:46:19;23.52;;;16.58;;
23555;SDS011;11956;53.184;8.578;2022-11-20T16:49:22;24.95;;;16.27;;
23555;SDS011;11956;53.184;8.578;2022-11-20T16:52:23;23.02;;;14.90;;
23555;SDS011;11956;53.184;8.578;2022-11-20T16:55:24;23.17;;;15.32;;
23555;SDS011;11956;53.184;8.578;2022-11-20T16:58:25;26.48;;;16.48;;
23555;SDS011;11956;53.184;8.578;2022-11-20T17:01:27;23.98;;;14.98;;
23555;SDS011;11956;53.184;8.578;2022-11-20T17:04:29;26.08;;;15.75;;
23555;SDS011;11956;53.184;8.578;2022-11-20T17:07:30;22.20;;;14.55;;
23555;SDS011;11956;53.184;8.578;2022-11-20T17:10:31;24.35;;;15.98;;
23555;SDS011;11956;53.184;8.578;2022-11-20T17:13:32;23.55;;;14.88;;
23555;SDS011;11956;53.184;8.578;2022-11-20T17:16:33;24.75;;;16.38;;
23555;SDS011;11956;53.184;8.578;2022-11-20T17:19:36;22.33;;;14.95;;
23555;SDS011;11956;53.184;8.578;2022-11-20T17:22:40;21.92;;;15.20;;
23555;SDS011;11956;53.184;8.578;2022-11-20T17:25:41;24.38;;;15.48;;
23555;SDS011;11956;53.184;8.578;2022-11-20T17:28:42;21.40;;;14.55;;
23555;SDS011;11956;53.184;8.578;2022-11-20T17:31:53;23.77;;;16.52;;
23555;SDS011;11956;53.184;8.578;2022-11-20T17:34:54;24.98;;;15.45;;
23555;SDS011;11956;53.184;8.578;2022-11-20T17:37:55;23.50;;;15.25;;
23555;SDS011;11956;53.184;8.578;2022-11-20T17:41:06;24.65;;;15.27;;
23555;SDS011;11956;53.184;8.578;2022-11-20T17:44:10;23.33;;;15.68;;
23555;SDS011;11956;53.184;8.578;2022-11-20T17:47:12;24.60;;;15.90;;
23555;SDS011;11956;53.184;8.578;2022-11-20T17:50:13;23.13;;;14.73;;
23555;SDS011;11956;53.184;8.578;2022-11-20T17:53:14;23.58;;;15.00;;
23555;SDS011;11956;53.184;8.578;2022-11-20T17:56:15;26.42;;;15.90;;
23555;SDS011;11956;53.184;8.578;2022-11-20T17:59:31;23.25;;;15.05;;
23555;SDS011;11956;53.184;8.578;2022-11-20T18:02:32;24.05;;;16.55;;
23555;SDS011;11956;53.184;8.578;2022-11-20T18:05:32;23.08;;;15.15;;
23555;SDS011;11956;53.184;8.578;2022-11-20T18:08:33;27.27;;;16.73;;
23555;SDS011;11956;53.184;8.578;2022-11-20T18:11:36;26.05;;;15.65;;
23555;SDS011;11956;53.184;8.578;2022-11-20T18:14:40;25.23;;;16.30;;
23555;SDS011;11956;53.184;8.578;2022-11-20T18:17:42;28.77;;;17.20;;
23555;SDS011;11956;53.184;8.578;2022-11-20T18:20:43;26.17;;;16.83;;
23555;SDS011;11956;53.184;8.578;2022-11-20T18:23:44;29.38;;;18.40;;
23555;SDS011;11956;53.184;8.578;2022-11-20T18:26:45;27.25;;;17.58;;
23555;SDS011;11956;53.184;8.578;2022-11-20T18:29:46;27.42;;;17.48;;
23555;SDS011;11956;53.184;8.578;2022-11-20T18:32:53;32.17;;;19.85;;
23555;SDS011;11956;53.184;8.578;2022-11-20T18:35:54;28.52;;;17.35;;
23555;SDS011;11956;53.184;8.578;2022-11-20T18:38:56;27.67;;;17.73;;
23555;SDS011;11956;53.184;8.578;2022-11-20T18:41:59;28.48;;;18.25;;
23555;SDS011;11956;53.184;8.578;2022-11-20T18:45:18;40.17;;;23.13;;
23555;SDS011;11956;53.184;8.578;2022-11-20T18:48:19;39.38;;;23.20;;
23555;SDS011;11956;53.184;8.578;2022-11-20T18:51:20;41.45;;;25.15;;
23555;SDS011;11956;53.184;8.578;2022-11-20T18:54:21;42.40;;;25.55;;
23555;SDS011;11956;53.184;8.578;2022-11-20T18:57:23;45.15;;;26.63;;
23555;SDS011;11956;53.184;8.578;2022-11-20T19:00:27;41.42;;;25.15;;
23555;SDS011;11956;53.184;8.578;2022-11-20T19:03:28;43.05;;;25.50;;
23555;SDS011;11956;53.184;8.578;2022-11-20T19:06:29;41.05;;;26.15;;
23555;SDS011;11956;53.184;8.578;2022-11-20T19:09:29;43.58;;;25.67;;
23555;SDS011;11956;53.184;8.578;2022-11-20T19:12:30;43.83;;;25.45;;
23555;SDS011;11956;53.184;8.578;2022-11-20T19:15:32;43.03;;;26.23;;
23555;SDS011;11956;53.184;8.578;2022-11-20T19:18:35;39.42;;;25.23;;
23555;SDS011;11956;53.184;8.578;2022-11-20T19:21:36;43.47;;;26.17;;
23555;SDS011;11956;53.184;8.578;2022-11-20T19:24:37;44.85;;;26.50;;
23555;SDS011;11956;53.184;8.578;2022-11-20T19:27:38;41.50;;;24.00;;
23555;SDS011;11956;53.184;8.578;2022-11-20T19:30:39;41.53;;;24.75;;
23555;SDS011;11956;53.184;8.578;2022-11-20T19:33:41;39.20;;;23.43;;
23555;SDS011;11956;53.184;8.578;2022-11-20T19:36:43;42.72;;;25.17;;
23555;SDS011;11956;53.184;8.578;2022-11-20T19:39:44;39.00;;;22.92;;